Time;durP1;ratioP1;P1;durP2;ratioP2;P2;SDS_P1;SDS_P2;PMS_P1;PMS_P2;Temp;Humidity;BMP_temperature;BMP_pressure;BME280_temperature;BME280_humidity;BME280_pressure;Samples;Min_cycle;Max_cycle;Signal;HPM_P1;HPM_P2
2020/12/29 00:01:46;;;;;;;1.45;0.82;;;23.70;31.10;;;;;;5041194;28;20031;-45
2020/12/29 00:04:17;;;;;;;0.75;0.57;;;23.70;31.10;;;;;;5038758;28;20045;-48
2020/12/29 00:07:01;;;;;;;1.20;0.80;;;23.60;31.00;;;;;;5044667;28;20028;-47
2020/12/29 00:09:27;;;;;;;0.80;0.60;;;23.60;31.10;;;;;;5045913;28;20076;-47
2020/12/29 00:11:54;;;;;;;1.95;0.60;;;23.60;31.20;;;;;;5046181;28;20368;-47
2020/12/29 00:14:21;;;;;;;0.88;0.73;;;23.60;31.20;;;;;;5046156;28;20124;-48
2020/12/29 00:16:47;;;;;;;0.77;0.50;;;23.50;31.10;;;;;;5046954;28;20025;-45
2020/12/29 00:19:15;;;;;;;0.77;0.68;;;23.50;31.10;;;;;;5045493;28;20060;-49
2020/12/29 00:21:41;;;;;;;1.17;0.68;;;23.50;31.10;;;;;;5046709;28;20043;-45
2020/12/29 00:24:08;;;;;;;1.27;0.60;;;23.50;31.10;;;;;;5026961;28;20404;-45
2020/12/29 00:26:34;;;;;;;0.93;0.50;;;23.50;31.10;;;;;;5043977;28;20091;-45
2020/12/29 00:29:00;;;;;;;1.13;0.70;;;23.50;31.10;;;;;;5043604;28;20026;-49
2020/12/29 00:31:26;;;;;;;1.20;0.73;;;23.50;31.10;;;;;;5044425;28;20029;-45
2020/12/29 00:33:58;;;;;;;0.63;0.52;;;23.50;31.10;;;;;;5046356;28;20406;-46
2020/12/29 00:36:25;;;;;;;1.60;0.60;;;23.40;31.10;;;;;;5044552;28;20060;-49
2020/12/29 00:38:51;;;;;;;0.75;0.50;;;23.40;31.10;;;;;;5044361;28;20549;-45
2020/12/29 00:41:17;;;;;;;0.77;0.60;;;23.40;31.10;;;;;;5045073;28;20037;-48
2020/12/29 00:43:44;;;;;;;0.63;0.50;;;23.40;31.20;;;;;;5044766;28;20040;-54
2020/12/29 00:46:12;;;;;;;1.58;0.68;;;23.40;31.20;;;;;;5045225;28;20059;-44
2020/12/29 00:48:39;;;;;;;1.23;0.70;;;23.30;31.20;;;;;;5042635;28;20040;-49
2020/12/29 00:51:06;;;;;;;1.17;0.60;;;23.30;31.20;;;;;;5026804;28;20125;-48
2020/12/29 00:53:36;;;;;;;1.13;0.80;;;23.30;31.20;;;;;;5026782;28;20032;-49
2020/12/29 00:56:07;;;;;;;0.77;0.50;;;23.30;31.20;;;;;;5027331;28;20020;-51
2020/12/29 00:58:33;;;;;;;0.70;0.52;;;23.30;31.30;;;;;;5046323;28;20098;-50
2020/12/29 01:00:59;;;;;;;0.85;0.60;;;23.30;31.30;;;;;;5028915;28;20072;-48
2020/12/29 01:03:26;;;;;;;0.65;0.57;;;23.30;31.30;;;;;;5026497;28;20029;-50
2020/12/29 01:05:53;;;;;;;0.60;0.40;;;23.30;31.40;;;;;;5027541;28;20030;-48
2020/12/29 01:08:21;;;;;;;1.05;0.50;;;23.20;31.30;;;;;;5025883;28;20128;-48
2020/12/29 01:10:54;;;;;;;1.20;0.75;;;23.20;31.40;;;;;;5026546;28;20022;-49
2020/12/29 01:13:38;;;;;;;0.68;0.60;;;23.20;31.40;;;;;;5029349;28;20063;-52
2020/12/29 01:16:05;;;;;;;0.38;0.38;;;23.20;31.40;;;;;;5028248;28;20029;-48
2020/12/29 01:18:33;;;;;;;0.57;0.40;;;23.20;32.10;;;;;;5026214;28;20548;-49
2020/12/29 01:20:59;;;;;;;0.77;0.50;;;23.20;31.50;;;;;;5044899;28;20104;-46
2020/12/29 01:23:25;;;;;;;0.95;0.50;;;23.10;31.50;;;;;;5046724;28;20028;-47
2020/12/29 01:25:50;;;;;;;1.25;0.45;;;23.10;31.50;;;;;;5044343;28;20028;-46
2020/12/29 01:28:16;;;;;;;0.47;0.40;;;23.10;31.50;;;;;;5045033;28;20021;-47
2020/12/29 01:30:42;;;;;;;0.77;0.55;;;23.10;31.60;;;;;;5043149;28;20041;-48
2020/12/29 01:33:08;;;;;;;1.15;0.50;;;23.10;31.60;;;;;;5044528;28;20159;-44
2020/12/29 01:35:34;;;;;;;1.10;0.60;;;23.00;31.60;;;;;;5044678;28;20144;-47
2020/12/29 01:38:00;;;;;;;0.60;0.60;;;23.00;31.60;;;;;;5044981;28;20069;-51
2020/12/29 01:40:26;;;;;;;0.50;0.43;;;23.00;31.60;;;;;;5042390;28;20483;-48
2020/12/29 01:42:52;;;;;;;0.80;0.50;;;23.00;31.60;;;;;;5043132;28;20461;-46
2020/12/29 01:45:18;;;;;;;0.85;0.60;;;23.00;31.60;;;;;;5045416;28;20048;-49
2020/12/29 01:47:45;;;;;;;1.00;0.68;;;23.00;31.70;;;;;;5042442;28;20039;-47
2020/12/29 01:50:12;;;;;;;0.90;0.60;;;23.00;31.70;;;;;;5041674;28;20043;-49
2020/12/29 01:52:39;;;;;;;0.65;0.52;;;22.90;31.60;;;;;;5044039;28;20116;-50
2020/12/29 01:55:06;;;;;;;0.80;0.50;;;22.90;31.70;;;;;;5042813;28;20754;-45
2020/12/29 01:57:33;;;;;;;0.55;0.47;;;22.90;31.70;;;;;;5025825;28;20016;-45
2020/12/29 02:00:00;;;;;;;0.60;0.52;;;22.90;31.80;;;;;;5041591;28;20108;-48
2020/12/29 02:02:26;;;;;;;0.70;0.60;;;22.90;31.80;;;;;;5042029;28;20036;-46
2020/12/29 02:04:52;;;;;;;0.70;0.60;;;22.90;31.80;;;;;;5044913;28;20033;-45
2020/12/29 02:07:18;;;;;;;0.82;0.60;;;22.90;31.80;;;;;;5043832;28;20085;-47
2020/12/29 02:09:45;;;;;;;1.10;0.38;;;22.80;31.80;;;;;;5043278;28;20040;-47
2020/12/29 02:12:31;;;;;;;0.50;0.40;;;22.80;31.80;;;;;;5027748;28;20383;-45
2020/12/29 02:14:58;;;;;;;1.00;0.50;;;22.80;31.70;;;;;;5042617;28;20056;-50
2020/12/29 02:17:25;;;;;;;1.20;0.50;;;22.80;31.80;;;;;;5039643;28;20045;-45
2020/12/29 02:19:51;;;;;;;0.82;0.60;;;22.80;31.80;;;;;;5041469;28;20059;-47
2020/12/29 02:22:21;;;;;;;0.70;0.50;;;22.70;31.80;;;;;;5042298;28;20112;-44
2020/12/29 02:24:52;;;;;;;1.27;0.50;;;22.70;31.80;;;;;;5043688;28;20060;-46
2020/12/29 02:27:18;;;;;;;0.60;0.40;;;22.70;31.80;;;;;;5041603;28;20048;-44
2020/12/29 02:29:44;;;;;;;0.35;0.35;;;22.70;31.80;;;;;;5040661;28;20025;-45
2020/12/29 02:32:10;;;;;;;1.50;0.50;;;22.70;32.40;;;;;;5046556;28;20453;-45
2020/12/29 02:34:37;;;;;;;1.02;0.60;;;22.70;31.80;;;;;;5043706;28;20432;-49
2020/12/29 02:37:09;;;;;;;1.30;0.60;;;22.70;31.80;;;;;;5042372;28;20033;-44
2020/12/29 02:39:40;;;;;;;0.47;0.40;;;22.70;31.80;;;;;;5023059;28;20107;-44
2020/12/29 02:42:07;;;;;;;0.77;0.60;;;22.70;31.80;;;;;;5043126;28;20029;-45
2020/12/29 02:44:34;;;;;;;1.23;0.70;;;22.60;31.80;;;;;;5043198;28;20158;-44
2020/12/29 02:46:59;;;;;;;0.50;0.47;;;22.60;31.80;;;;;;5040206;28;20037;-48
2020/12/29 02:49:26;;;;;;;0.52;0.40;;;22.60;31.80;;;;;;5043269;28;20024;-52
2020/12/29 02:51:51;;;;;;;0.60;0.50;;;22.60;31.80;;;;;;5043683;28;20049;-52
2020/12/29 02:54:17;;;;;;;0.70;0.57;;;22.60;31.80;;;;;;5042289;28;20072;-47
2020/12/29 02:56:43;;;;;;;1.02;0.47;;;22.60;31.80;;;;;;5043774;28;20456;-45
2020/12/29 02:59:10;;;;;;;0.50;0.50;;;22.60;31.90;;;;;;5042314;28;20333;-46
2020/12/29 03:01:36;;;;;;;0.50;0.45;;;22.60;31.90;;;;;;5039863;28;20017;-44
2020/12/29 03:04:02;;;;;;;0.43;0.43;;;22.50;31.90;;;;;;5042873;28;20043;-46
2020/12/29 03:06:28;;;;;;;0.82;0.60;;;22.50;31.90;;;;;;5041920;28;20039;-46
2020/12/29 03:08:53;;;;;;;0.35;0.35;;;22.50;31.90;;;;;;5041632;28;20060;-44
2020/12/29 03:11:30;;;;;;;1.05;0.57;;;22.50;31.90;;;;;;5042931;28;20044;-46
2020/12/29 03:13:58;;;;;;;1.45;0.60;;;22.50;31.90;;;;;;5042521;28;20348;-45
2020/12/29 03:16:25;;;;;;;0.65;0.50;;;22.50;32.00;;;;;;5024887;28;20699;-46
2020/12/29 03:18:51;;;;;;;0.80;0.52;;;22.50;32.00;;;;;;5041519;28;20372;-47
2020/12/29 03:21:17;;;;;;;0.65;0.50;;;22.40;31.90;;;;;;5041490;28;20032;-47
2020/12/29 03:23:43;;;;;;;0.40;0.40;;;22.50;32.00;;;;;;5042697;28;20032;-45
2020/12/29 03:26:09;;;;;;;0.57;0.57;;;22.50;32.00;;;;;;5042057;28;20356;-44
2020/12/29 03:28:35;;;;;;;1.35;0.50;;;22.40;32.00;;;;;;5041875;28;20041;-44
2020/12/29 03:31:01;;;;;;;0.40;0.40;;;22.40;32.00;;;;;;5039986;28;20021;-44
2020/12/29 03:33:27;;;;;;;0.40;0.40;;;22.40;32.00;;;;;;5042308;28;20064;-47
2020/12/29 03:35:54;;;;;;;0.82;0.50;;;22.40;32.00;;;;;;5042797;28;20056;-44
2020/12/29 03:38:20;;;;;;;0.52;0.50;;;22.40;32.00;;;;;;5041777;28;20064;-46
2020/12/29 03:40:46;;;;;;;0.68;0.50;;;22.40;32.00;;;;;;5046665;28;20033;-45
2020/12/29 03:43:15;;;;;;;0.90;0.63;;;22.40;32.00;;;;;;5044653;28;20065;-45
2020/12/29 03:45:46;;;;;;;0.70;0.50;;;22.40;32.00;;;;;;5046395;28;20108;-45
2020/12/29 03:48:14;;;;;;;0.70;0.52;;;22.40;32.00;;;;;;5049082;28;20025;-47
2020/12/29 03:50:41;;;;;;;0.60;0.52;;;22.40;32.00;;;;;;5045712;28;20628;-45
2020/12/29 03:53:07;;;;;;;0.50;0.50;;;22.30;31.90;;;;;;5046790;28;20116;-45
2020/12/29 03:55:33;;;;;;;1.10;0.50;;;22.30;31.90;;;;;;5045378;28;20053;-48
2020/12/29 03:57:59;;;;;;;0.73;0.50;;;22.30;32.00;;;;;;5044706;28;20045;-45
2020/12/29 04:00:25;;;;;;;1.08;0.68;;;22.30;32.00;;;;;;5050439;28;20016;-50
2020/12/29 04:02:51;;;;;;;0.95;0.60;;;22.30;32.00;;;;;;5027971;28;20029;-47
2020/12/29 04:05:17;;;;;;;0.98;0.55;;;22.30;32.00;;;;;;5046663;28;20045;-44
2020/12/29 04:07:44;;;;;;;1.17;0.57;;;22.30;32.00;;;;;;5043731;28;20083;-45
2020/12/29 04:10:10;;;;;;;0.90;0.60;;;22.30;31.90;;;;;;5045585;28;20068;-46
2020/12/29 04:12:37;;;;;;;1.13;0.70;;;22.30;31.90;;;;;;5048330;28;20094;-45
2020/12/29 04:15:04;;;;;;;0.93;0.70;;;22.30;32.00;;;;;;5042855;28;20116;-46
2020/12/29 04:17:34;;;;;;;1.13;0.80;;;22.20;32.00;;;;;;5044598;28;20036;-43
2020/12/29 04:20:01;;;;;;;1.02;0.70;;;22.20;31.90;;;;;;5046159;28;20445;-45
2020/12/29 04:22:30;;;;;;;0.50;0.50;;;22.20;31.90;;;;;;5043879;28;20052;-46
2020/12/29 04:24:57;;;;;;;0.90;0.60;;;22.20;31.90;;;;;;5047209;28;20021;-46
2020/12/29 04:27:23;;;;;;;0.82;0.50;;;22.20;31.90;;;;;;5044038;28;20026;-45
2020/12/29 04:29:49;;;;;;;0.60;0.60;;;22.20;32.60;;;;;;5046425;28;20036;-47
2020/12/29 04:32:15;;;;;;;0.80;0.70;;;22.20;31.90;;;;;;5012356;28;20317;-44
2020/12/29 04:34:42;;;;;;;0.60;0.60;;;22.20;32.00;;;;;;5045655;28;20040;-44
2020/12/29 04:37:08;;;;;;;1.55;0.70;;;22.20;32.00;;;;;;5043655;28;20480;-46
2020/12/29 04:39:33;;;;;;;1.20;0.70;;;22.20;32.00;;;;;;5045016;28;20120;-45
2020/12/29 04:42:04;;;;;;;0.95;0.60;;;22.10;31.90;;;;;;5047663;28;20021;-47
2020/12/29 04:44:30;;;;;;;0.70;0.63;;;22.10;31.90;;;;;;5044583;28;20351;-45
2020/12/29 04:46:57;;;;;;;0.90;0.60;;;22.10;31.90;;;;;;5044011;28;20100;-46
2020/12/29 04:49:23;;;;;;;1.02;0.70;;;22.10;31.90;;;;;;5045188;28;20129;-46
2020/12/29 04:51:57;;;;;;;0.57;0.52;;;22.10;32.00;;;;;;5043932;28;20057;-48
2020/12/29 04:54:25;;;;;;;0.93;0.52;;;22.10;32.00;;;;;;5046898;28;20079;-44
2020/12/29 04:56:56;;;;;;;0.98;0.60;;;22.10;32.00;;;;;;5043972;28;20513;-45
2020/12/29 04:59:22;;;;;;;0.60;0.60;;;22.10;32.00;;;;;;5044260;28;20408;-47
2020/12/29 05:01:48;;;;;;;1.10;0.60;;;22.10;32.00;;;;;;5046275;28;20024;-43
2020/12/29 05:04:14;;;;;;;2.67;0.70;;;22.10;32.10;;;;;;5046142;28;20394;-46
2020/12/29 05:06:40;;;;;;;1.17;0.60;;;22.10;32.10;;;;;;5045071;28;20025;-43
2020/12/29 05:09:06;;;;;;;0.65;0.60;;;22.10;32.10;;;;;;5044465;28;20036;-44
2020/12/29 05:11:34;;;;;;;1.45;0.85;;;22.10;32.10;;;;;;5044688;28;20112;-47
2020/12/29 05:14:01;;;;;;;0.98;0.75;;;22.00;32.10;;;;;;5043947;28;20122;-52
2020/12/29 05:16:27;;;;;;;0.90;0.70;;;22.00;32.10;;;;;;5042987;28;20029;-44
2020/12/29 05:18:53;;;;;;;0.82;0.60;;;22.00;32.10;;;;;;5046122;28;20128;-46
2020/12/29 05:21:19;;;;;;;1.00;0.80;;;22.00;32.10;;;;;;5041742;28;20064;-45
2020/12/29 05:23:44;;;;;;;1.00;0.70;;;22.10;32.10;;;;;;5045096;28;20021;-44
2020/12/29 05:26:12;;;;;;;1.38;0.60;;;22.00;32.10;;;;;;5045069;28;20402;-46
2020/12/29 05:28:38;;;;;;;0.85;0.68;;;22.00;32.10;;;;;;5042819;28;20040;-49
2020/12/29 05:31:05;;;;;;;0.82;0.60;;;22.00;32.10;;;;;;5045157;28;20461;-45
2020/12/29 05:33:31;;;;;;;1.33;0.73;;;22.00;32.10;;;;;;5044538;28;20029;-46
2020/12/29 05:36:01;;;;;;;0.63;0.50;;;22.00;32.10;;;;;;5042483;28;20341;-46
2020/12/29 05:38:27;;;;;;;1.52;0.80;;;22.00;32.00;;;;;;5041905;28;20488;-46
2020/12/29 05:40:54;;;;;;;1.02;0.60;;;22.00;32.10;;;;;;5043041;28;20039;-45
2020/12/29 05:43:30;;;;;;;1.45;0.80;;;22.00;32.10;;;;;;5044742;28;20021;-46
2020/12/29 05:46:00;;;;;;;1.00;0.80;;;22.00;32.70;;;;;;5044144;28;20107;-49
2020/12/29 05:48:26;;;;;;;1.45;0.90;;;21.90;32.10;;;;;;5043902;28;20436;-45
2020/12/29 05:50:52;;;;;;;1.02;0.80;;;21.90;32.10;;;;;;5043010;28;20029;-48
2020/12/29 05:53:21;;;;;;;0.70;0.63;;;21.90;32.10;;;;;;5043716;28;20455;-45
2020/12/29 05:55:47;;;;;;;0.77;0.70;;;22.00;32.20;;;;;;5044816;28;20419;-44
2020/12/29 05:58:12;;;;;;;1.80;1.05;;;21.90;32.20;;;;;;5043724;28;20483;-46
2020/12/29 06:00:40;;;;;;;0.85;0.70;;;21.90;32.20;;;;;;5044100;28;20041;-44
2020/12/29 06:03:08;;;;;;;1.58;0.77;;;21.90;32.20;;;;;;5042605;28;20043;-44
2020/12/29 06:05:35;;;;;;;1.20;1.00;;;21.90;32.20;;;;;;5041888;28;20363;-46
2020/12/29 06:08:04;;;;;;;0.90;0.70;;;21.90;32.30;;;;;;5045045;28;20040;-45
2020/12/29 06:10:32;;;;;;;1.35;0.98;;;21.80;32.20;;;;;;5043476;28;20053;-47
2020/12/29 06:12:59;;;;;;;1.33;0.95;;;21.90;32.30;;;;;;5044526;28;20099;-46
2020/12/29 06:15:35;;;;;;;1.10;0.88;;;21.80;32.20;;;;;;5043577;28;20367;-45
2020/12/29 06:18:08;;;;;;;0.95;0.82;;;21.80;32.20;;;;;;5042204;28;20050;-46
2020/12/29 06:20:49;;;;;;;1.35;1.00;;;21.80;32.30;;;;;;5046384;28;20033;-45
2020/12/29 06:23:18;;;;;;;1.50;0.90;;;21.80;32.20;;;;;;5025865;28;20075;-50
2020/12/29 06:25:46;;;;;;;1.50;1.10;;;21.80;32.20;;;;;;5042033;28;20044;-50
2020/12/29 06:28:18;;;;;;;1.42;1.00;;;21.80;32.30;;;;;;5044677;28;20129;-46
2020/12/29 06:30:44;;;;;;;0.93;0.82;;;21.80;32.30;;;;;;5044674;28;20029;-46
2020/12/29 06:33:17;;;;;;;2.47;0.90;;;21.80;32.30;;;;;;5043556;28;20029;-44
2020/12/29 06:35:44;;;;;;;1.15;0.90;;;21.80;32.30;;;;;;5043803;28;20053;-47
2020/12/29 06:38:24;;;;;;;1.67;0.90;;;21.80;32.30;;;;;;5042592;28;20041;-48
2020/12/29 06:40:51;;;;;;;0.90;0.80;;;21.70;32.30;;;;;;5043232;28;20038;-46
2020/12/29 06:43:17;;;;;;;1.05;0.88;;;21.80;32.40;;;;;;5040389;28;20396;-46
2020/12/29 06:45:44;;;;;;;1.20;1.00;;;21.70;32.40;;;;;;5039838;28;20314;-48
2020/12/29 06:48:17;;;;;;;1.50;1.00;;;21.80;32.40;;;;;;5042552;28;20033;-46
2020/12/29 06:50:43;;;;;;;1.58;1.17;;;21.80;32.40;;;;;;5043843;28;20068;-45
2020/12/29 06:53:19;;;;;;;1.17;1.00;;;21.70;32.40;;;;;;5042099;28;20084;-47
2020/12/29 06:55:50;;;;;;;2.20;1.05;;;21.70;32.40;;;;;;5042052;28;20452;-46
2020/12/29 06:58:33;;;;;;;1.10;1.00;;;21.70;32.40;;;;;;5043500;28;20079;-48
2020/12/29 07:01:23;;;;;;;1.27;0.90;;;21.70;32.40;;;;;;5042083;28;20448;-44
2020/12/29 07:04:06;;;;;;;1.08;0.95;;;21.70;32.40;;;;;;5043242;28;20029;-45
2020/12/29 07:06:34;;;;;;;1.50;1.02;;;21.70;32.40;;;;;;5040149;28;20024;-44
2020/12/29 07:09:14;;;;;;;1.40;1.10;;;21.70;32.40;;;;;;5042351;28;20104;-44
2020/12/29 07:12:07;;;;;;;1.38;1.15;;;21.70;32.50;;;;;;5042667;28;20408;-46
2020/12/29 07:14:34;;;;;;;0.82;0.77;;;21.70;32.50;;;;;;5044585;28;20345;-45
2020/12/29 07:17:00;;;;;;;1.20;1.00;;;21.70;32.50;;;;;;5043074;28;20079;-45
2020/12/29 07:19:29;;;;;;;1.35;1.10;;;21.70;32.50;;;;;;5039145;28;20056;-44
2020/12/29 07:21:55;;;;;;;1.38;1.10;;;21.60;32.50;;;;;;5042838;28;20112;-46
2020/12/29 07:24:21;;;;;;;1.45;1.05;;;21.60;32.50;;;;;;5042037;28;20092;-46
2020/12/29 07:26:47;;;;;;;1.20;1.00;;;21.60;32.50;;;;;;5043870;28;20433;-46
2020/12/29 07:29:13;;;;;;;1.45;1.00;;;21.60;32.50;;;;;;5040707;28;20033;-43
2020/12/29 07:31:43;;;;;;;1.50;1.00;;;21.60;32.50;;;;;;5039139;28;20037;-45
2020/12/29 07:34:14;;;;;;;0.95;0.90;;;21.60;32.50;;;;;;5039214;28;20100;-49
2020/12/29 07:36:46;;;;;;;2.72;0.98;;;21.60;32.50;;;;;;5043510;28;20044;-47
2020/12/29 07:39:14;;;;;;;1.02;0.88;;;21.60;32.40;;;;;;5022681;28;20060;-53
2020/12/29 07:41:40;;;;;;;1.10;0.80;;;21.60;32.40;;;;;;5041559;28;20391;-47
2020/12/29 07:44:06;;;;;;;0.80;0.80;;;21.60;32.40;;;;;;5038963;28;20068;-49
2020/12/29 07:46:32;;;;;;;2.60;0.60;;;21.60;32.30;;;;;;5042258;28;20457;-45
2020/12/29 07:48:59;;;;;;;0.98;0.60;;;21.60;32.70;;;;;;5037552;28;20034;-52
2020/12/29 07:51:25;;;;;;;0.70;0.70;;;21.70;33.20;;;;;;5042959;28;20048;-60
2020/12/29 07:53:51;;;;;;;0.82;0.73;;;21.80;33.40;;;;;;5042328;28;20083;-47
2020/12/29 07:56:17;;;;;;;2.28;0.73;;;21.90;33.30;;;;;;5042765;28;21111;-54
2020/12/29 07:58:42;;;;;;;1.25;0.60;;;22.00;33.20;;;;;;5048661;28;20028;-52
2020/12/29 08:01:08;;;;;;;1.23;0.80;;;22.10;33.10;;;;;;5047993;28;20455;-45
2020/12/29 08:03:34;;;;;;;1.08;0.60;;;22.20;32.80;;;;;;5041130;28;20037;-47
2020/12/29 08:06:00;;;;;;;0.82;0.60;;;22.30;33.50;;;;;;5041615;28;20459;-46
2020/12/29 08:08:25;;;;;;;1.15;0.73;;;22.40;32.70;;;;;;5023030;28;20108;-48
2020/12/29 08:10:51;;;;;;;0.77;0.60;;;22.50;32.60;;;;;;5040490;28;20032;-48
2020/12/29 08:13:20;;;;;;;0.90;0.60;;;22.60;32.50;;;;;;5040339;28;20032;-51
2020/12/29 08:15:48;;;;;;;0.52;0.52;;;22.70;32.50;;;;;;5039230;28;20029;-52
2020/12/29 08:18:16;;;;;;;0.55;0.55;;;22.90;32.40;;;;;;5040339;28;20068;-47
2020/12/29 08:20:46;;;;;;;0.95;0.60;;;23.00;32.30;;;;;;5040990;28;20033;-49
2020/12/29 08:23:13;;;;;;;1.52;0.77;;;23.10;32.20;;;;;;5041871;28;20361;-46
2020/12/29 08:25:39;;;;;;;0.80;0.60;;;23.20;32.10;;;;;;5043500;28;20095;-48
2020/12/29 08:28:07;;;;;;;0.70;0.70;;;23.30;32.00;;;;;;5047207;28;20033;-50
2020/12/29 08:30:34;;;;;;;1.05;0.68;;;23.40;31.90;;;;;;5045959;28;20064;-47
2020/12/29 08:33:03;;;;;;;0.60;0.60;;;23.50;31.90;;;;;;5047348;28;20025;-50
2020/12/29 08:35:41;;;;;;;0.90;0.60;;;23.60;31.80;;;;;;5045359;28;20021;-46
2020/12/29 08:38:41;;;;;;;0.82;0.70;;;23.70;31.70;;;;;;5042318;28;20454;-46
2020/12/29 08:41:12;;;;;;;0.85;0.75;;;23.80;31.50;;;;;;5042233;28;20112;-50
2020/12/29 08:43:45;;;;;;;0.90;0.60;;;24.00;31.50;;;;;;5043354;28;20068;-49
2020/12/29 08:46:15;;;;;;;0.70;0.52;;;24.00;31.30;;;;;;5048483;28;20117;-47
2020/12/29 08:48:55;;;;;;;1.05;0.60;;;24.10;31.10;;;;;;5044605;28;20037;-51
2020/12/29 08:51:26;;;;;;;0.73;0.63;;;24.20;31.00;;;;;;5044512;28;20064;-51
2020/12/29 08:53:53;;;;;;;2.13;0.60;;;24.30;30.80;;;;;;5044548;28;20128;-46
2020/12/29 08:56:26;;;;;;;1.50;0.70;;;24.40;30.70;;;;;;5049926;28;20344;-44
2020/12/29 08:58:52;;;;;;;1.30;0.60;;;24.50;30.50;;;;;;5050881;28;20094;-45
2020/12/29 09:01:35;;;;;;;1.17;0.57;;;24.60;30.50;;;;;;5036598;28;20024;-44
2020/12/29 09:04:24;;;;;;;0.40;0.40;;;24.70;30.40;;;;;;5049861;28;20029;-46
2020/12/29 09:07:12;;;;;;;0.75;0.50;;;24.70;30.30;;;;;;5048118;28;20088;-45
2020/12/29 09:10:07;;;;;;;0.73;0.50;;;24.80;30.20;;;;;;5049671;28;20844;-45
2020/12/29 09:12:34;;;;;;;1.02;0.40;;;24.80;30.20;;;;;;5046882;28;20055;-49
2020/12/29 09:15:07;;;;;;;1.00;0.80;;;24.90;30.10;;;;;;5052285;28;20033;-44
2020/12/29 09:17:57;;;;;;;1.80;0.60;;;24.90;30.00;;;;;;5048183;28;20017;-46
2020/12/29 09:20:29;;;;;;;0.40;0.40;;;24.90;30.00;;;;;;5040772;28;20102;-44
2020/12/29 09:23:12;;;;;;;0.60;0.60;;;25.00;30.00;;;;;;5046573;28;20464;-47
2020/12/29 09:25:44;;;;;;;1.08;0.68;;;25.00;29.90;;;;;;5049289;28;20122;-47
2020/12/29 09:28:23;;;;;;;0.57;0.57;;;25.00;29.90;;;;;;5048782;28;20083;-45
2020/12/29 09:31:00;;;;;;;0.88;0.60;;;25.00;29.80;;;;;;5049656;28;20033;-53
2020/12/29 09:33:27;;;;;;;0.50;0.50;;;25.00;29.80;;;;;;5047400;28;20067;-45
2020/12/29 09:35:53;;;;;;;0.40;0.40;;;25.00;29.80;;;;;;5050653;28;20021;-47
2020/12/29 09:38:20;;;;;;;0.68;0.60;;;25.10;29.80;;;;;;5036074;28;20033;-46
2020/12/29 09:40:49;;;;;;;0.55;0.45;;;25.10;29.70;;;;;;5050750;28;20025;-46
2020/12/29 09:43:15;;;;;;;1.52;0.50;;;25.10;29.70;;;;;;5051247;28;20383;-47
2020/12/29 09:45:44;;;;;;;1.10;0.60;;;25.10;29.60;;;;;;5051451;28;20024;-51
2020/12/29 09:48:11;;;;;;;0.50;0.50;;;25.10;29.60;;;;;;5051347;28;20032;-52
2020/12/29 09:50:37;;;;;;;0.88;0.70;;;25.10;29.50;;;;;;5049468;28;20405;-47
2020/12/29 09:53:03;;;;;;;0.95;0.57;;;25.10;29.70;;;;;;5052199;28;20029;-48
2020/12/29 09:55:29;;;;;;;0.52;0.47;;;25.10;29.80;;;;;;5051606;28;20440;-44
2020/12/29 09:57:56;;;;;;;0.50;0.50;;;25.10;29.70;;;;;;5050970;28;20580;-49
2020/12/29 10:00:22;;;;;;;0.80;0.50;;;25.20;29.70;;;;;;5048245;28;20231;-52
2020/12/29 10:02:49;;;;;;;0.68;0.63;;;25.20;29.70;;;;;;5036064;28;20060;-53
2020/12/29 10:05:15;;;;;;;0.65;0.60;;;25.30;29.60;;;;;;5049151;28;20025;-50
2020/12/29 10:07:44;;;;;;;0.40;0.40;;;25.30;29.60;;;;;;5048088;28;20029;-46
2020/12/29 10:10:10;;;;;;;1.20;0.50;;;25.30;29.50;;;;;;5049544;28;20021;-50
2020/12/29 10:12:36;;;;;;;0.70;0.50;;;25.40;29.50;;;;;;5048870;28;20444;-51
2020/12/29 10:15:05;;;;;;;0.55;0.40;;;25.40;29.40;;;;;;5048241;28;20029;-54
2020/12/29 10:17:32;;;;;;;0.60;0.60;;;25.40;29.30;;;;;;5052222;28;20036;-56
2020/12/29 10:19:57;;;;;;;0.40;0.40;;;25.50;29.20;;;;;;5047551;28;20045;-47
2020/12/29 10:22:26;;;;;;;1.02;0.55;;;25.60;29.10;;;;;;5044118;28;20029;-47
2020/12/29 10:24:51;;;;;;;0.32;0.32;;;25.60;29.10;;;;;;5045034;28;20079;-50
2020/12/29 10:27:17;;;;;;;0.70;0.60;;;25.60;29.00;;;;;;5039379;28;20029;-49
2020/12/29 10:29:43;;;;;;;0.95;0.40;;;25.50;29.20;;;;;;5043241;28;20033;-52
2020/12/29 10:32:09;;;;;;;0.30;0.30;;;25.40;29.40;;;;;;5044632;28;20408;-50
2020/12/29 10:34:34;;;;;;;0.45;0.45;;;25.40;29.50;;;;;;5041077;28;20567;-48
2020/12/29 10:37:00;;;;;;;2.05;0.52;;;25.30;29.60;;;;;;5027290;28;20032;-52
2020/12/29 10:39:26;;;;;;;0.50;0.40;;;25.30;29.70;;;;;;5042440;28;20044;-50
2020/12/29 10:41:52;;;;;;;0.40;0.40;;;25.10;29.70;;;;;;5044460;28;20025;-50
2020/12/29 10:44:18;;;;;;;0.85;0.60;;;25.10;29.80;;;;;;5043873;28;20028;-50
2020/12/29 10:46:47;;;;;;;0.95;0.50;;;25.10;29.80;;;;;;5043602;28;20036;-47
2020/12/29 10:49:14;;;;;;;0.82;0.40;;;25.00;29.80;;;;;;5038645;28;20116;-49
2020/12/29 10:51:40;;;;;;;0.93;0.60;;;25.00;29.80;;;;;;5044496;28;20035;-51
2020/12/29 10:54:06;;;;;;;1.40;0.50;;;24.90;29.90;;;;;;5043006;28;20021;-47
2020/12/29 10:56:32;;;;;;;2.20;0.50;;;24.90;29.90;;;;;;5043266;28;20427;-49
2020/12/29 10:58:58;;;;;;;0.80;0.57;;;24.80;30.00;;;;;;5044101;28;20158;-52
2020/12/29 11:01:24;;;;;;;0.40;0.40;;;24.80;30.00;;;;;;5045248;28;20025;-44
2020/12/29 11:03:51;;;;;;;0.30;0.30;;;24.80;30.00;;;;;;5042479;28;20108;-46
2020/12/29 11:06:19;;;;;;;0.50;0.40;;;24.70;30.10;;;;;;5042553;28;20033;-60
2020/12/29 11:08:45;;;;;;;0.88;0.38;;;24.70;30.10;;;;;;5044807;28;20033;-49
2020/12/29 11:11:12;;;;;;;0.30;0.28;;;24.60;28.90;;;;;;5042335;28;20021;-51
2020/12/29 11:13:38;;;;;;;1.27;0.40;;;24.40;29.20;;;;;;5041077;28;20363;-46
2020/12/29 11:16:04;;;;;;;0.50;0.50;;;24.40;29.40;;;;;;5039588;28;20067;-48
2020/12/29 11:18:30;;;;;;;1.08;0.40;;;24.30;29.50;;;;;;5043612;28;20049;-49
2020/12/29 11:20:56;;;;;;;0.30;0.30;;;24.30;29.70;;;;;;5040797;28;20157;-46
2020/12/29 11:23:22;;;;;;;0.38;0.38;;;24.30;29.80;;;;;;5042232;28;20028;-46
2020/12/29 11:25:48;;;;;;;1.85;0.50;;;24.30;29.90;;;;;;5042899;28;20037;-46
2020/12/29 11:28:14;;;;;;;0.50;0.30;;;24.40;30.00;;;;;;5042264;28;20029;-45
2020/12/29 11:30:40;;;;;;;0.30;0.30;;;24.40;30.00;;;;;;5042106;28;20113;-47
2020/12/29 11:33:07;;;;;;;0.65;0.47;;;24.30;30.00;;;;;;5040334;28;20171;-48
2020/12/29 11:35:33;;;;;;;0.60;0.40;;;24.30;30.00;;;;;;5044758;28;20029;-46
2020/12/29 11:37:58;;;;;;;0.63;0.32;;;24.30;30.00;;;;;;5041536;28;20039;-43
2020/12/29 11:40:24;;;;;;;0.40;0.30;;;24.30;30.00;;;;;;5043829;28;20033;-49
2020/12/29 11:42:50;;;;;;;0.40;0.40;;;24.30;30.00;;;;;;5042800;28;20037;-49
2020/12/29 11:45:16;;;;;;;0.68;0.55;;;24.30;30.00;;;;;;5042906;28;20052;-45
2020/12/29 11:47:42;;;;;;;0.40;0.40;;;24.30;30.00;;;;;;5042471;28;20031;-46
2020/12/29 11:50:07;;;;;;;1.08;0.40;;;24.30;30.00;;;;;;5041144;28;20040;-50
2020/12/29 11:52:33;;;;;;;0.73;0.50;;;24.30;30.00;;;;;;5042016;28;20434;-46
2020/12/29 11:54:59;;;;;;;0.50;0.50;;;24.30;30.00;;;;;;5040094;28;20432;-50
2020/12/29 11:57:25;;;;;;;0.47;0.47;;;24.30;30.00;;;;;;5040912;28;20111;-46
2020/12/29 11:59:50;;;;;;;3.30;0.50;;;24.20;30.00;;;;;;5043923;28;20368;-52
2020/12/29 12:02:16;;;;;;;0.68;0.60;;;24.20;30.00;;;;;;5051420;28;20039;-53
2020/12/29 12:04:42;;;;;;;1.13;0.60;;;24.20;30.00;;;;;;5046371;28;20440;-51
2020/12/29 12:07:11;;;;;;;1.27;0.80;;;24.20;30.00;;;;;;5046285;28;20029;-50
2020/12/29 12:09:40;;;;;;;2.13;0.88;;;24.20;30.10;;;;;;5046975;28;20025;-53
2020/12/29 12:12:06;;;;;;;2.67;0.60;;;24.20;30.30;;;;;;5051376;28;20359;-49
2020/12/29 12:14:32;;;;;;;0.77;0.52;;;24.20;30.40;;;;;;5047339;28;20052;-49
2020/12/29 12:16:58;;;;;;;2.58;0.50;;;24.20;30.60;;;;;;5045965;28;20036;-51
2020/12/29 12:19:24;;;;;;;2.60;0.50;;;24.20;30.90;;;;;;5046727;28;20053;-51
2020/12/29 12:21:50;;;;;;;1.83;0.32;;;24.20;31.00;;;;;;5045542;28;20412;-47
2020/12/29 12:24:17;;;;;;;0.60;0.60;;;24.20;31.00;;;;;;5044239;28;20037;-48
2020/12/29 12:26:43;;;;;;;1.05;0.70;;;24.20;31.00;;;;;;5044405;28;20051;-44
2020/12/29 12:29:08;;;;;;;0.63;0.47;;;24.10;31.00;;;;;;5031776;28;20033;-46
2020/12/29 12:31:34;;;;;;;0.95;0.50;;;24.10;31.10;;;;;;5048985;28;21960;-42
2020/12/29 12:34:00;;;;;;;0.95;0.47;;;24.10;31.20;;;;;;5046714;28;20017;-47
2020/12/29 12:36:26;;;;;;;2.60;0.63;;;24.10;31.20;;;;;;5047535;28;20427;-45
2020/12/29 12:38:51;;;;;;;3.85;0.60;;;24.10;31.10;;;;;;5043069;28;20352;-44
2020/12/29 12:41:17;;;;;;;2.30;0.60;;;24.10;31.10;;;;;;5030883;28;20029;-45
2020/12/29 12:43:45;;;;;;;3.00;0.70;;;24.20;31.10;;;;;;5045036;28;20356;-44
2020/12/29 12:46:11;;;;;;;1.58;0.73;;;24.20;31.00;;;;;;5046490;28;20104;-44
2020/12/29 12:48:39;;;;;;;2.00;0.70;;;24.30;30.90;;;;;;5025290;28;20048;-48
2020/12/29 12:51:05;;;;;;;1.23;0.70;;;24.40;30.80;;;;;;5041894;28;20356;-49
2020/12/29 12:53:32;;;;;;;1.63;0.70;;;24.40;30.90;;;;;;5045784;28;20033;-45